Time;durP1;ratioP1;P1;durP2;ratioP2;P2;SDS_P1;SDS_P2;PMS_P1;PMS_P2;Temp;Humidity;BMP_temperature;BMP_pressure;BME280_temperature;BME280_humidity;BME280_pressure;Samples;Min_cycle;Max_cycle;Signal;HPM_P1;HPM_P2
2023/04/01 00:01:54;;;;;;;4.57;1.65;;;;;;;3.44;69.37;93602.59;5018325;28;20549;-73
2023/04/01 00:04:20;;;;;;;3.28;1.15;;;;;;;3.22;67.82;93604.28;5020375;28;20037;-73
2023/04/01 00:06:47;;;;;;;4.82;1.60;;;;;;;3.27;66.43;93612.47;5002222;28;20041;-73
2023/04/01 00:09:12;;;;;;;2.85;1.05;;;;;;;2.88;68.99;93614.34;5018638;28;20496;-73
2023/04/01 00:11:38;;;;;;;2.47;1.13;;;;;;;3.42;67.50;93608.03;5020147;28;20045;-74
2023/04/01 00:14:04;;;;;;;2.83;1.15;;;;;;;3.15;68.12;93604.22;5002768;28;20402;-74
2023/04/01 00:16:29;;;;;;;2.72;0.95;;;;;;;3.38;66.25;93606.75;5000596;28;20624;-73
2023/04/01 00:18:55;;;;;;;4.45;0.98;;;;;;;3.00;66.65;93610.28;5020442;28;20302;-74
2023/04/01 00:21:21;;;;;;;6.78;1.48;;;;;;;3.57;65.85;93599.31;5017878;28;20117;-73
2023/04/01 00:23:47;;;;;;;1.48;0.95;;;;;;;3.46;66.46;93618.19;5018625;28;20556;-73
2023/04/01 00:26:14;;;;;;;4.15;1.20;;;;;;;3.08;68.34;93600.66;5020517;28;20033;-73
2023/04/01 00:28:39;;;;;;;3.92;1.20;;;;;;;2.69;70.08;93615.69;5002160;28;20281;-74
2023/04/01 00:31:06;;;;;;;4.35;1.48;;;;;;;2.88;69.38;93595.94;5002053;28;20055;-73
2023/04/01 00:33:32;;;;;;;3.50;1.05;;;;;;;2.86;69.87;93634.75;5018145;28;20111;-74
2023/04/01 00:36:09;;;;;;;3.10;1.10;;;;;;;2.28;72.00;93612.38;5001410;28;20075;-73
2023/04/01 00:38:35;;;;;;;4.38;1.48;;;;;;;2.90;69.05;93599.22;5001284;28;20108;-74
2023/04/01 00:41:00;;;;;;;2.75;0.90;;;;;;;2.10;71.18;93605.63;5019336;28;20420;-74
2023/04/01 00:43:26;;;;;;;2.35;1.10;;;;;;;2.09;70.38;93600.53;5018778;28;20033;-74
2023/04/01 00:45:51;;;;;;;4.18;1.40;;;;;;;2.47;69.72;93618.97;5018305;28;20041;-74
2023/04/01 00:48:20;;;;;;;3.13;1.20;;;;;;;1.80;72.66;93599.41;4984351;28;20049;-73
2023/04/01 00:51:10;;;;;;;3.67;1.10;;;;;;;1.86;72.75;93615.28;5002154;28;20084;-73
2023/04/01 00:53:38;;;;;;;2.53;1.15;;;;;;;2.29;74.29;93621.06;5010180;28;20036;-73
2023/04/01 00:56:06;;;;;;;3.08;1.13;;;;;;;1.91;74.83;93609.53;5023198;28;20041;-73
2023/04/01 00:58:34;;;;;;;1.58;0.85;;;;;;;2.61;71.33;93609.50;5002343;28;20390;-74
2023/04/01 01:01:00;;;;;;;1.33;0.88;;;;;;;2.41;70.91;93609.16;5001382;28;20520;-71
2023/04/01 01:03:25;;;;;;;5.05;1.23;;;;;;;2.08;72.22;93619.91;5035373;22;20704;-75
2023/04/01 01:06:06;;;;;;;1.83;0.95;;;;;;;2.06;73.50;93601.72;5033254;28;20045;-75
2023/04/01 01:08:40;;;;;;;5.00;1.10;;;;;;;2.24;71.32;93626.84;5018280;28;20037;-76
2023/04/01 01:11:06;;;;;;;2.70;1.10;;;;;;;2.42;71.07;93602.94;5018101;28;20044;-75
2023/04/01 01:13:57;;;;;;;1.48;1.13;;;;;;;2.27;71.64;93595.81;5001075;28;20038;-75
2023/04/01 01:16:23;;;;;;;3.90;1.27;;;;;;;2.13;72.05;93602.66;5015758;28;20236;-75
2023/04/01 01:19:01;;;;;;;6.03;1.40;;;;;;;2.08;73.13;93606.78;5019629;28;20032;-75
2023/04/01 01:21:46;;;;;;;1.38;0.68;;;;;;;2.46;71.39;93591.09;5002315;28;20548;-75
2023/04/01 01:24:43;;;;;;;2.15;0.85;;;;;;;2.24;72.16;93600.59;5018343;28;20048;-74
2023/04/01 01:27:10;;;;;;;3.10;1.35;;;;;;;1.77;72.44;93594.50;5020420;28;20220;-75
2023/04/01 01:30:09;;;;;;;1.55;0.90;;;;;;;2.71;71.21;93584.78;5000682;28;20620;-75
2023/04/01 01:32:59;;;;;;;2.97;1.05;;;;;;;1.68;72.93;93612.94;5015506;28;20054;-75
2023/04/01 01:35:34;;;;;;;3.63;1.40;;;;;;;2.50;71.44;93588.91;5018121;28;20508;-75
2023/04/01 01:38:05;;;;;;;4.65;1.25;;;;;;;2.46;70.41;93583.19;5015853;28;20037;-75
2023/04/01 01:40:31;;;;;;;1.83;1.00;;;;;;;2.65;70.32;93587.13;4984788;28;20111;-76
2023/04/01 01:42:59;;;;;;;6.60;1.30;;;;;;;2.36;69.74;93596.56;5008346;28;20048;-76
2023/04/01 01:45:25;;;;;;;1.50;0.80;;;;;;;2.61;70.43;93587.66;5000703;28;20173;-75
2023/04/01 01:47:51;;;;;;;4.43;1.30;;;;;;;2.44;69.64;93592.22;5017542;28;20057;-75
2023/04/01 01:50:17;;;;;;;4.07;1.50;;;;;;;2.21;71.12;93598.34;4984818;28;20034;-76
2023/04/01 01:52:42;;;;;;;3.53;1.33;;;;;;;2.25;70.20;93605.66;5017377;28;20112;-75
2023/04/01 01:55:33;;;;;;;5.72;1.38;;;;;;;2.75;69.65;93601.81;5005221;28;20040;-75
2023/04/01 01:58:01;;;;;;;4.35;1.58;;;;;;;2.38;71.29;93593.75;5015548;28;20064;-73
2023/04/01 02:00:30;;;;;;;5.07;1.73;;;;;;;1.90;72.93;93604.44;5000172;28;20045;-74
2023/04/01 02:02:55;;;;;;;3.43;1.13;;;;;;;2.24;71.67;93587.47;5004089;28;20141;-74
2023/04/01 02:05:22;;;;;;;2.22;1.13;;;;;;;2.51;70.94;93586.09;4981329;28;20038;-74
2023/04/01 02:08:21;;;;;;;2.67;1.13;;;;;;;1.52;72.11;93598.03;4997836;28;20036;-74
2023/04/01 02:10:58;;;;;;;3.05;1.10;;;;;;;2.63;70.48;93578.59;4986260;28;20524;-74
2023/04/01 02:13:34;;;;;;;6.63;1.33;;;;;;;2.25;71.46;93589.13;4997774;28;20037;-74
2023/04/01 02:16:01;;;;;;;3.72;1.00;;;;;;;3.04;69.95;93574.72;4996018;28;20090;-74
2023/04/01 02:18:26;;;;;;;4.50;0.90;;;;;;;2.91;69.40;93585.06;4981819;28;20030;-73
2023/04/01 02:20:52;;;;;;;2.20;1.17;;;;;;;3.24;68.32;93576.00;4981063;28;20952;-74
2023/04/01 02:23:17;;;;;;;4.22;1.42;;;;;;;2.26;70.30;93598.63;4981449;28;20034;-74
2023/04/01 02:25:43;;;;;;;2.25;0.90;;;;;;;2.83;70.30;93572.84;4980959;28;21582;-74
2023/04/01 02:28:08;;;;;;;5.50;1.38;;;;;;;1.65;74.37;93586.19;4980329;28;20049;-74
2023/04/01 02:30:35;;;;;;;2.63;1.00;;;;;;;2.72;70.59;93560.16;4997628;28;20038;-73
2023/04/01 02:33:01;;;;;;;2.70;0.80;;;;;;;2.45;70.93;93578.13;4997880;28;20037;-73
2023/04/01 02:35:26;;;;;;;2.15;0.93;;;;;;;2.78;69.98;93570.75;4981336;28;20053;-74
2023/04/01 02:37:52;;;;;;;5.07;1.23;;;;;;;2.89;68.56;93581.78;4997654;28;20049;-74
2023/04/01 02:40:17;;;;;;;4.97;1.40;;;;;;;1.47;72.45;93579.38;4964939;28;20490;-73
2023/04/01 02:42:43;;;;;;;2.70;1.25;;;;;;;0.76;77.46;93583.56;4981467;28;20034;-74
2023/04/01 02:45:09;;;;;;;4.10;1.27;;;;;;;2.08;71.93;93588.41;4995629;28;20088;-74
2023/04/01 02:47:35;;;;;;;4.18;1.23;;;;;;;1.51;72.53;93578.06;4979862;28;20039;-73
2023/04/01 02:50:00;;;;;;;4.85;1.27;;;;;;;2.51;70.37;93577.41;4997008;28;20058;-74
2023/04/01 02:52:26;;;;;;;3.67;1.00;;;;;;;2.68;70.08;93572.00;5013466;28;20073;-74
2023/04/01 02:54:51;;;;;;;2.25;1.00;;;;;;;2.47;69.74;93578.75;4996961;28;20038;-74
2023/04/01 02:57:16;;;;;;;3.83;0.98;;;;;;;2.60;69.95;93576.34;5013208;28;20270;-74
2023/04/01 02:59:42;;;;;;;2.33;0.80;;;;;;;1.68;73.29;93580.63;4997344;28;20069;-74
2023/04/01 03:02:07;;;;;;;4.72;1.40;;;;;;;1.66;70.73;93590.47;4995769;28;20050;-74
2023/04/01 03:04:33;;;;;;;2.83;0.68;;;;;;;2.27;70.11;93568.72;4997172;28;20046;-73
2023/04/01 03:06:58;;;;;;;1.75;1.00;;;;;;;1.37;71.76;93598.75;4997305;28;20034;-74
2023/04/01 03:09:24;;;;;;;3.42;1.15;;;;;;;2.17;71.52;93573.44;5001034;28;20045;-74
2023/04/01 03:11:49;;;;;;;3.05;1.05;;;;;;;1.91;70.13;93585.91;5002751;28;20053;-74
2023/04/01 03:14:15;;;;;;;1.65;1.10;;;;;;;2.52;68.89;93571.16;4984195;28;20069;-74
2023/04/01 03:16:40;;;;;;;4.68;0.98;;;;;;;1.99;71.03;93570.09;5000910;28;20560;-74
2023/04/01 03:19:05;;;;;;;1.80;0.90;;;;;;;2.16;71.26;93571.78;5017544;28;20041;-74
2023/04/01 03:21:31;;;;;;;1.20;0.65;;;;;;;2.64;69.92;93568.91;5002368;28;20044;-74
2023/04/01 03:23:56;;;;;;;1.23;0.90;;;;;;;1.84;72.95;93569.22;5002111;28;20072;-74
2023/04/01 03:26:22;;;;;;;4.57;1.02;;;;;;;2.05;71.44;93578.25;5001271;28;20780;-75
2023/04/01 03:28:47;;;;;;;2.53;0.65;;;;;;;2.17;70.89;93576.06;5001954;28;20041;-75
2023/04/01 03:31:13;;;;;;;1.92;0.98;;;;;;;1.74;72.56;93572.88;5000914;28;20565;-74
2023/04/01 03:33:38;;;;;;;4.07;1.00;;;;;;;2.21;71.50;93572.09;4999067;28;20615;-74
2023/04/01 03:36:06;;;;;;;1.55;0.93;;;;;;;2.34;70.03;93568.84;5017031;28;20148;-74
2023/04/01 03:38:32;;;;;;;2.30;0.60;;;;;;;2.31;71.10;93572.63;5002284;28;20037;-74
2023/04/01 03:40:58;;;;;;;1.50;0.57;;;;;;;2.03;71.88;93585.47;5000384;28;20656;-74
2023/04/01 03:43:23;;;;;;;1.65;0.77;;;;;;;2.35;70.50;93565.25;5016927;28;20038;-74
2023/04/01 03:45:50;;;;;;;3.60;1.10;;;;;;;2.31;70.32;93585.75;5000532;28;20413;-74
2023/04/01 03:48:15;;;;;;;2.78;1.08;;;;;;;1.92;72.28;93574.41;4982664;28;20056;-75
2023/04/01 03:50:41;;;;;;;2.22;0.80;;;;;;;3.09;68.37;93562.88;5000393;28;20046;-74
2023/04/01 03:53:07;;;;;;;2.33;0.95;;;;;;;2.15;71.10;93586.72;4999950;28;20053;-75
2023/04/01 03:55:32;;;;;;;4.40;0.93;;;;;;;1.68;73.67;93585.88;4999754;28;20478;-74
2023/04/01 03:57:58;;;;;;;1.30;0.77;;;;;;;1.87;72.25;93581.97;5016219;28;20034;-74
2023/04/01 04:00:23;;;;;;;2.25;0.70;;;;;;;1.72;73.35;93576.66;5001117;28;20068;-73
2023/04/01 04:02:48;;;;;;;1.48;0.85;;;;;;;1.23;74.94;93605.53;5015089;28;20061;-74
2023/04/01 04:05:14;;;;;;;0.88;0.70;;;;;;;1.36;76.00;93589.25;4983704;28;20590;-73
2023/04/01 04:07:39;;;;;;;1.17;0.47;;;;;;;1.54;74.86;93577.75;4984630;28;20072;-74
2023/04/01 04:10:05;;;;;;;2.13;0.82;;;;;;;0.94;76.62;93582.53;5001998;28;20030;-74
2023/04/01 04:12:31;;;;;;;2.17;0.93;;;;;;;1.80;73.99;93567.94;4999428;28;20046;-74
2023/04/01 04:14:56;;;;;;;1.88;0.60;;;;;;;2.03;72.42;93578.44;5000235;28;20025;-74
2023/04/01 04:17:21;;;;;;;1.70;0.70;;;;;;;1.88;74.48;93573.91;4999489;28;20999;-74
2023/04/01 04:19:47;;;;;;;2.10;0.55;;;;;;;2.03;71.91;93574.97;4998577;28;20046;-74
2023/04/01 04:22:12;;;;;;;2.03;0.80;;;;;;;2.30;71.71;93564.94;5016315;28;20030;-74
2023/04/01 04:24:38;;;;;;;1.98;0.50;;;;;;;2.67;70.44;93572.97;4999539;28;20034;-75
2023/04/01 04:27:03;;;;;;;1.38;0.80;;;;;;;2.26;70.28;93590.75;4998172;28;20029;-74
2023/04/01 04:29:29;;;;;;;3.28;0.85;;;;;;;1.31;74.78;93585.50;5001107;28;20103;-74
2023/04/01 04:31:54;;;;;;;3.45;1.13;;;;;;;2.08;71.71;93583.97;4998945;28;20668;-74
2023/04/01 04:34:22;;;;;;;1.40;0.77;;;;;;;2.22;72.20;93573.72;4983796;28;20045;-74
2023/04/01 04:36:47;;;;;;;2.28;0.80;;;;;;;2.33;71.32;93583.78;4998963;28;20038;-74
2023/04/01 04:39:13;;;;;;;0.22;0.22;;;;;;;2.62;68.60;93576.97;4982984;28;20494;-75
2023/04/01 04:41:38;;;;;;;2.75;0.90;;;;;;;2.16;71.70;93569.16;5014872;28;20046;-74
2023/04/01 04:44:04;;;;;;;2.83;0.95;;;;;;;1.75;71.70;93576.31;4982953;28;20049;-74
2023/04/01 04:46:30;;;;;;;2.45;0.80;;;;;;;1.29;74.32;93584.88;4983198;28;20036;-74
2023/04/01 04:48:55;;;;;;;3.95;0.88;;;;;;;1.85;73.26;93582.16;4998175;28;20038;-74
2023/04/01 04:51:21;;;;;;;1.50;0.55;;;;;;;2.39;70.58;93583.06;4999210;28;20084;-74
2023/04/01 04:53:46;;;;;;;1.95;0.63;;;;;;;2.30;70.15;93592.03;4998029;28;20039;-74
2023/04/01 04:56:12;;;;;;;2.67;1.13;;;;;;;2.93;68.42;93579.63;4998508;28;20046;-74
2023/04/01 04:58:38;;;;;;;1.85;0.63;;;;;;;2.39;69.51;93601.47;4999549;28;20029;-74
2023/04/01 05:01:10;;;;;;;2.35;0.90;;;;;;;2.52;69.13;93600.06;4981022;28;20042;-74
2023/04/01 05:03:36;;;;;;;1.25;0.57;;;;;;;2.38;71.54;93588.50;4998088;28;20134;-73
2023/04/01 05:06:02;;;;;;;0.75;0.60;;;;;;;2.79;68.24;93589.94;4980857;28;20549;-74
2023/04/01 05:08:27;;;;;;;2.97;0.63;;;;;;;2.40;70.28;93602.28;4981391;28;20473;-74
2023/04/01 05:10:52;;;;;;;4.25;0.82;;;;;;;2.25;70.18;93602.25;4995080;28;20045;-73
2023/04/01 05:13:18;;;;;;;3.47;0.90;;;;;;;3.00;68.45;93589.25;4999185;28;20046;-73
2023/04/01 05:15:43;;;;;;;1.85;0.70;;;;;;;2.05;71.85;93597.47;4998684;28;20064;-73
2023/04/01 05:18:09;;;;;;;1.95;0.88;;;;;;;2.68;68.78;93596.47;4997750;28;20034;-74
2023/04/01 05:20:34;;;;;;;2.42;0.60;;;;;;;2.53;69.69;93593.81;4998945;28;20038;-73
2023/04/01 05:23:00;;;;;;;1.05;0.55;;;;;;;2.81;68.98;93595.84;4998963;28;20038;-73
2023/04/01 05:25:25;;;;;;;0.38;0.38;;;;;;;2.36;70.18;93591.31;4997408;28;20042;-73
2023/04/01 05:27:51;;;;;;;1.17;0.45;;;;;;;2.14;70.96;93601.66;4998439;28;20045;-73
2023/04/01 05:30:16;;;;;;;1.88;0.80;;;;;;;2.87;68.79;93584.63;4998372;28;20129;-73
2023/04/01 05:32:42;;;;;;;1.40;0.55;;;;;;;3.03;68.92;93588.09;4998445;28;20041;-73
2023/04/01 05:35:08;;;;;;;2.40;0.90;;;;;;;2.45;70.09;93599.13;4995615;28;20405;-73
2023/04/01 05:37:35;;;;;;;1.73;0.68;;;;;;;2.63;70.54;93588.31;5013690;28;20046;-73
2023/04/01 05:40:00;;;;;;;3.53;0.82;;;;;;;2.99;68.76;93592.06;4980412;28;20037;-73
2023/04/01 05:42:25;;;;;;;3.42;0.88;;;;;;;3.16;68.43;93590.88;5013921;28;20038;-73
2023/04/01 05:44:51;;;;;;;2.88;0.85;;;;;;;2.65;67.27;93605.53;4996595;28;20042;-73
2023/04/01 05:47:16;;;;;;;0.65;0.55;;;;;;;2.35;71.25;93600.19;4998305;28;20037;-72
2023/04/01 05:49:41;;;;;;;0.82;0.65;;;;;;;3.09;67.80;93595.22;4996544;28;20048;-72
2023/04/01 05:52:07;;;;;;;1.83;0.85;;;;;;;2.67;69.62;93594.84;4998801;28;20049;-73
2023/04/01 05:54:33;;;;;;;2.05;0.77;;;;;;;3.57;67.54;93604.56;4998315;28;20537;-73
2023/04/01 05:56:58;;;;;;;1.23;0.60;;;;;;;3.30;67.37;93605.03;5012973;28;20565;-73
2023/04/01 05:59:23;;;;;;;1.30;0.60;;;;;;;3.21;68.24;93602.66;4998197;28;20584;-73
2023/04/01 06:01:49;;;;;;;0.50;0.43;;;;;;;3.34;67.50;93602.88;4996688;28;20085;-72
2023/04/01 06:04:16;;;;;;;1.98;0.80;;;;;;;3.01;67.44;93596.16;4996240;28;20042;-73
2023/04/01 06:06:41;;;;;;;1.50;0.75;;;;;;;2.95;68.02;93612.63;4993989;28;20030;-73
2023/04/01 06:09:14;;;;;;;2.67;0.80;;;;;;;3.57;67.90;93607.22;4963325;28;20073;-72
2023/04/01 06:11:45;;;;;;;2.15;1.00;;;;;;;1.84;70.27;93613.81;4995883;28;20122;-72
2023/04/01 06:14:20;;;;;;;1.80;0.70;;;;;;;3.40;69.10;93594.22;4997143;28;20053;-73
2023/04/01 06:16:58;;;;;;;0.93;0.73;;;;;;;2.86;69.28;93609.25;5011867;28;20041;-73
2023/04/01 06:19:45;;;;;;;1.38;0.43;;;;;;;3.58;66.87;93605.41;4996472;28;20045;-73
2023/04/01 06:22:43;;;;;;;1.80;0.70;;;;;;;4.02;65.66;93595.78;5012815;28;20538;-73
2023/04/01 06:25:29;;;;;;;1.88;0.77;;;;;;;4.11;64.93;93602.53;4995262;28;20042;-73
2023/04/01 06:27:58;;;;;;;0.65;0.60;;;;;;;4.01;64.78;93602.06;4996090;28;20030;-73
2023/04/01 06:30:48;;;;;;;0.38;0.30;;;;;;;3.67;66.77;93607.75;4998148;28;20044;-73
2023/04/01 06:33:30;;;;;;;1.95;1.17;;;;;;;2.10;68.92;93620.53;4996672;28;20127;-72
2023/04/01 06:36:20;;;;;;;0.40;0.40;;;;;;;3.37;67.13;93605.09;4995737;28;20029;-73
2023/04/01 06:39:20;;;;;;;0.82;0.55;;;;;;;3.14;65.84;93619.16;4994848;28;20022;-73
2023/04/01 06:42:09;;;;;;;1.23;0.80;;;;;;;2.57;68.87;93616.09;4979232;28;20053;-73
2023/04/01 06:44:59;;;;;;;1.00;0.60;;;;;;;3.19;68.03;93613.38;4976254;28;20046;-73
2023/04/01 06:47:48;;;;;;;0.73;0.68;;;;;;;3.41;65.99;93613.47;4994655;28;20029;-73
2023/04/01 06:50:22;;;;;;;0.85;0.47;;;;;;;3.81;65.80;93611.34;5006222;28;20046;-73
2023/04/01 06:53:03;;;;;;;0.50;0.50;;;;;;;3.50;66.36;93614.22;5011365;28;20502;-73
2023/04/01 06:56:07;;;;;;;1.25;0.95;;;;;;;3.30;66.18;93612.91;4996053;28;20026;-73
2023/04/01 06:59:05;;;;;;;1.60;0.70;;;;;;;3.32;66.98;93615.38;4970018;28;20133;-73
2023/04/01 07:01:38;;;;;;;1.00;0.73;;;;;;;3.61;67.75;93626.09;4996204;28;20142;-73
2023/04/01 07:04:10;;;;;;;0.32;0.32;;;;;;;3.33;67.79;93622.25;4995508;28;20064;-73
2023/04/01 07:06:44;;;;;;;0.82;0.60;;;;;;;3.11;67.07;93627.44;4996144;28;20088;-73
2023/04/01 07:09:16;;;;;;;0.70;0.52;;;;;;;3.37;67.84;93615.63;4993485;28;20042;-73
2023/04/01 07:11:41;;;;;;;0.50;0.50;;;;;;;3.37;66.98;93620.91;4963150;28;20116;-73
2023/04/01 07:14:07;;;;;;;2.30;0.68;;;;;;;3.33;68.01;93630.16;4995694;28;20037;-73
2023/04/01 07:16:51;;;;;;;0.87;0.70;;;;;;;3.38;66.66;93622.53;4993589;28;20407;-73
2023/04/01 07:19:35;;;;;;;0.50;0.43;;;;;;;3.16;69.29;93625.06;4995447;28;20257;-73
2023/04/01 07:22:05;;;;;;;0.82;0.60;;;;;;;3.57;66.38;93630.88;5008632;28;20072;-73
2023/04/01 07:24:39;;;;;;;1.00;0.70;;;;;;;3.59;67.10;93630.72;4995411;28;20048;-73
2023/04/01 07:27:08;;;;;;;0.47;0.47;;;;;;;2.88;71.16;93641.47;4979527;28;20446;-72
2023/04/01 07:29:34;;;;;;;1.13;0.90;;;;;;;3.43;68.27;93625.44;4995718;28;20030;-73
2023/04/01 07:32:34;;;;;;;1.50;0.88;;;;;;;3.50;68.21;93628.19;4996356;28;20041;-73
2023/04/01 07:35:09;;;;;;;2.15;0.70;;;;;;;3.64;66.90;93631.78;4990764;28;20351;-72
2023/04/01 07:38:02;;;;;;;1.27;0.75;;;;;;;3.27;68.28;93641.41;4995347;28;20050;-72
2023/04/01 07:40:34;;;;;;;1.00;0.60;;;;;;;2.29;70.57;93655.22;4992990;28;20562;-73
2023/04/01 07:43:09;;;;;;;0.98;0.75;;;;;;;2.85;70.64;93641.81;4996882;28;20026;-73
2023/04/01 07:45:52;;;;;;;1.05;0.73;;;;;;;3.65;68.63;93633.44;4996812;28;20756;-73
2023/04/01 07:48:42;;;;;;;2.38;0.98;;;;;;;3.90;67.37;93634.94;4994923;28;20372;-73
2023/04/01 07:51:19;;;;;;;0.60;0.60;;;;;;;4.00;66.48;93645.16;4978199;28;20585;-73
2023/04/01 07:53:52;;;;;;;0.50;0.50;;;;;;;4.05;66.87;93650.72;5012441;28;20331;-73
2023/04/01 07:56:26;;;;;;;2.38;0.50;;;;;;;3.21;69.60;93650.84;4977574;28;20188;-74
2023/04/01 07:59:01;;;;;;;1.13;0.55;;;;;;;3.43;66.96;93645.66;4997224;28;20093;-74
2023/04/01 08:01:32;;;;;;;0.75;0.57;;;;;;;3.71;67.66;93652.13;5011675;28;20430;-74
2023/04/01 08:04:16;;;;;;;0.90;0.40;;;;;;;3.90;67.13;93641.03;4999120;28;20056;-74
2023/04/01 08:07:02;;;;;;;1.33;0.60;;;;;;;4.37;66.23;93643.34;4997997;28;20206;-74
2023/04/01 08:10:12;;;;;;;0.43;0.40;;;;;;;3.58;68.47;93656.22;5011792;28;20526;-74
2023/04/01 08:12:48;;;;;;;0.73;0.40;;;;;;;3.71;66.99;93652.94;4965802;28;20115;-74
2023/04/01 08:15:16;;;;;;;0.50;0.50;;;;;;;3.59;69.37;93654.41;4996956;28;20022;-74
2023/04/01 08:18:07;;;;;;;0.43;0.43;;;;;;;3.31;68.57;93684.78;4999449;28;20101;-74
2023/04/01 08:20:59;;;;;;;0.63;0.60;;;;;;;3.54;67.94;93671.53;4998164;28;20042;-74
2023/04/01 08:23:30;;;;;;;0.55;0.55;;;;;;;3.69;66.29;93668.09;4997909;28;20531;-74
2023/04/01 08:26:18;;;;;;;2.67;1.10;;;;;;;4.04;67.40;93672.75;4998224;28;20048;-74
2023/04/01 08:28:46;;;;;;;0.55;0.55;;;;;;;4.29;66.89;93669.81;4996589;28;20053;-74
2023/04/01 08:31:33;;;;;;;0.60;0.60;;;;;;;4.07;66.87;93686.38;5014091;28;20045;-74
2023/04/01 08:33:58;;;;;;;0.57;0.35;;;;;;;4.12;66.82;93680.53;4997994;28;20517;-74
2023/04/01 08:36:29;;;;;;;0.98;0.50;;;;;;;4.19;64.96;93680.66;4978086;28;20133;-74
2023/04/01 08:38:59;;;;;;;0.60;0.40;;;;;;;4.50;65.79;93681.34;4983930;28;20033;-74
2023/04/01 08:41:31;;;;;;;1.05;0.95;;;;;;;3.30;69.17;93691.84;5010466;28;20066;-67
2023/04/01 08:44:12;;;;;;;1.33;0.70;;;;;;;3.52;67.56;93691.16;4995868;28;20517;-67
2023/04/01 08:47:06;;;;;;;0.80;0.80;;;;;;;4.61;67.21;93691.41;4997867;28;20034;-67
2023/04/01 08:49:57;;;;;;;1.17;0.85;;;;;;;4.43;65.35;93684.72;4998063;28;20050;-74
2023/04/01 08:52:34;;;;;;;1.27;0.75;;;;;;;4.93;64.14;93685.81;4999096;28;20065;-75
2023/04/01 08:55:31;;;;;;;1.00;0.70;;;;;;;4.66;64.76;93693.47;5012481;28;20113;-73
2023/04/01 08:58:00;;;;;;;1.17;0.85;;;;;;;4.07;67.59;93704.00;4997127;28;20270;-62
2023/04/01 09:00:32;;;;;;;;;;;;;;;3.92;69.21;93694.28;4998351;28;20042;-62
2023/04/01 09:03:22;;;;;;;0.47;0.47;;;;;;;3.53;68.38;93709.38;5013981;28;20312;-62
2023/04/01 09:05:54;;;;;;;1.48;0.60;;;;;;;3.17;71.23;93699.53;4997139;28;20451;-62
2023/04/01 09:08:29;;;;;;;0.50;0.50;;;;;;;2.96;71.79;93698.38;4997630;28;20609;-62
2023/04/01 09:11:25;;;;;;;0.63;0.60;;;;;;;3.56;70.90;93692.41;5013260;28;20036;-62
2023/04/01 09:14:12;;;;;;;0.52;0.40;;;;;;;3.83;68.19;93691.94;4997773;28;20376;-62
2023/04/01 09:16:57;;;;;;;0.70;0.52;;;;;;;4.18;67.51;93703.53;4998348;28;20045;-62
2023/04/01 09:19:40;;;;;;;0.40;0.40;;;;;;;3.92;66.19;93702.19;4998872;28;20054;-62
2023/04/01 09:22:10;;;;;;;2.05;0.50;;;;;;;4.33;67.53;93702.69;4997470;28;20034;-62
2023/04/01 09:24:47;;;;;;;0.57;0.57;;;;;;;3.87;68.26;93714.28;5013089;28;20204;-62
2023/04/01 09:27:30;;;;;;;0.75;0.75;;;;;;;3.14;72.99;93716.47;4998788;28;20432;-62
2023/04/01 09:30:08;;;;;;;0.73;0.50;;;;;;;3.38;71.37;93712.00;4995934;28;20057;-62
2023/04/01 09:32:42;;;;;;;0.38;0.38;;;;;;;3.86;69.91;93710.84;4997503;28;20482;-62
2023/04/01 09:35:45;;;;;;;1.80;0.65;;;;;;;4.54;66.96;93719.50;4978538;28;20311;-62
2023/04/01 09:38:28;;;;;;;0.65;0.57;;;;;;;4.74;66.42;93708.34;4997952;28;20442;-62
2023/04/01 09:41:00;;;;;;;0.82;0.82;;;;;;;4.89;66.45;93717.00;5011192;28;20348;-62
2023/04/01 09:43:40;;;;;;;0.98;0.65;;;;;;;4.49;66.36;93720.06;4995425;28;20149;-62
2023/04/01 09:46:26;;;;;;;0.73;0.52;;;;;;;4.82;65.84;93734.59;4998470;28;20521;-63
2023/04/01 09:49:16;;;;;;;0.47;0.47;;;;;;;5.04;66.48;93718.75;4995274;28;20544;-62
2023/04/01 09:52:06;;;;;;;1.75;1.02;;;;;;;4.32;66.93;93722.13;4998117;28;20562;-62
2023/04/01 09:54:45;;;;;;;0.80;0.73;;;;;;;5.11;65.95;93726.75;4997384;28;20026;-62
2023/04/01 09:57:48;;;;;;;1.48;0.95;;;;;;;5.13;65.59;93727.41;4996424;28;20170;-62
2023/04/01 10:00:43;;;;;;;1.00;0.90;;;;;;;4.64;67.36;93733.22;4995543;28;20125;-62
2023/04/01 10:03:37;;;;;;;0.93;0.90;;;;;;;4.70;64.86;93737.72;5006288;28;20560;-62
2023/04/01 10:06:37;;;;;;;0.77;0.77;;;;;;;4.85;66.08;93736.84;4995965;28;20052;-62
2023/04/01 10:09:26;;;;;;;0.63;0.63;;;;;;;4.47;68.19;93734.44;4997184;28;20470;-62
2023/04/01 10:12:07;;;;;;;1.65;0.73;;;;;;;4.40;66.77;93737.00;4995788;28;20045;-62
2023/04/01 10:14:42;;;;;;;0.68;0.68;;;;;;;3.93;69.66;93738.06;4997201;28;20053;-61
2023/04/01 10:17:26;;;;;;;0.70;0.70;;;;;;;4.27;69.37;93751.66;4996917;28;20592;-62
2023/04/01 10:20:03;;;;;;;0.68;0.68;;;;;;;4.49;68.92;93750.88;4997064;28;20243;-62
2023/04/01 10:22:37;;;;;;;0.80;0.80;;;;;;;3.70;71.05;93761.06;5011759;28;20033;-62
2023/04/01 10:25:12;;;;;;;0.93;0.93;;;;;;;3.93;69.78;93764.41;4996948;28;20052;-62
2023/04/01 10:27:37;;;;;;;1.33;1.10;;;;;;;3.41;70.54;93758.97;4997846;28;20091;-62
2023/04/01 10:30:20;;;;;;;0.90;0.90;;;;;;;3.87;71.16;93757.22;4996758;28;20448;-62
2023/04/01 10:33:15;;;;;;;0.82;0.82;;;;;;;2.43;73.66;93764.78;4995387;28;20328;-62
2023/04/01 10:35:58;;;;;;;1.50;0.70;;;;;;;4.52;69.70;93761.88;4995612;28;20037;-62
2023/04/01 10:38:54;;;;;;;1.38;1.27;;;;;;;3.67;69.38;93783.25;4997506;28;20040;-62
2023/04/01 10:41:56;;;;;;;0.85;0.85;;;;;;;3.36;74.01;93784.16;4994454;28;20449;-61
2023/04/01 10:44:54;;;;;;;1.20;0.75;;;;;;;1.93;79.58;93786.00;4995483;28;20042;-61
2023/04/01 10:47:48;;;;;;;0.63;0.63;;;;;;;2.13;78.73;93778.56;5007084;28;20502;-61
2023/04/01 10:50:26;;;;;;;2.38;0.50;;;;;;;2.07;79.54;93768.72;5012463;28;20301;-61
2023/04/01 10:52:57;;;;;;;0.52;0.52;;;;;;;2.58;77.40;93779.81;4996809;28;20498;-61
2023/04/01 10:55:32;;;;;;;0.70;0.70;;;;;;;3.03;75.04;93782.66;4997117;28;20292;-61
2023/04/01 10:58:37;;;;;;;0.40;0.40;;;;;;;2.28;76.36;93780.44;4996990;28;20419;-61
2023/04/01 11:01:14;;;;;;;0.63;0.50;;;;;;;2.30;78.12;93778.47;4996183;28;20097;-61
2023/04/01 11:03:52;;;;;;;0.55;0.55;;;;;;;1.89;79.28;93792.59;4996418;28;20125;-61
2023/04/01 11:06:29;;;;;;;0.40;0.40;;;;;;;1.93;80.06;93780.75;4997093;28;20037;-61
2023/04/01 11:09:27;;;;;;;1.00;0.90;;;;;;;2.51;79.02;93791.00;4996391;28;20554;-61
2023/04/01 11:12:03;;;;;;;1.38;0.68;;;;;;;2.68;76.92;93784.84;5004748;28;20127;-61
2023/04/01 11:14:50;;;;;;;0.70;0.70;;;;;;;2.08;80.61;93783.47;4994998;28;20029;-61
2023/04/01 11:17:52;;;;;;;1.08;0.60;;;;;;;2.43;78.71;93790.22;4996889;28;20346;-61
2023/04/01 11:20:43;;;;;;;0.50;0.50;;;;;;;2.86;77.86;93789.84;4994340;28;20046;-61
2023/04/01 11:23:41;;;;;;;0.50;0.50;;;;;;;2.70;78.14;93791.56;4995183;28;20084;-61
2023/04/01 11:26:15;;;;;;;0.45;0.45;;;;;;;3.13;76.46;93791.09;4996066;28;20064;-61
2023/04/01 11:29:12;;;;;;;0.50;0.50;;;;;;;3.37;76.74;93789.25;4998245;28;20042;-61
2023/04/01 11:31:40;;;;;;;0.43;0.43;;;;;;;2.17;80.53;93799.22;5000437;28;20037;-61
2023/04/01 11:34:24;;;;;;;0.68;0.68;;;;;;;1.83;82.16;93795.88;4997115;28;20078;-61
2023/04/01 11:37:11;;;;;;;0.40;0.40;;;;;;;1.87;82.13;93795.38;5000318;28;20060;-61
2023/04/01 11:39:47;;;;;;;0.45;0.45;;;;;;;2.15;83.15;93807.28;5000989;28;20459;-61
2023/04/01 11:42:44;;;;;;;0.60;0.60;;;;;;;2.10;81.66;93806.94;4999987;28;20050;-61
2023/04/01 11:45:33;;;;;;;0.60;0.60;;;;;;;2.56;79.50;93803.66;4990376;28;20526;-61
2023/04/01 11:48:15;;;;;;;;;;;;;;;2.57;79.86;93812.31;5000192;28;20037;-61
2023/04/01 11:51:02;;;;;;;0.60;0.60;;;;;;;2.38;80.88;93809.13;5000377;28;19914;-61
2023/04/01 11:53:49;;;;;;;0.50;0.50;;;;;;;2.06;82.36;93829.28;5000032;28;20034;-61
2023/04/01 11:56:34;;;;;;;0.40;0.40;;;;;;;2.23;82.09;93824.78;4997613;28;20038;-62
2023/04/01 11:59:40;;;;;;;0.60;0.60;;;;;;;2.38;81.73;93817.84;4998567;28;20410;-61
2023/04/01 12:02:14;;;;;;;0.50;0.50;;;;;;;2.09;81.71;93829.78;4994541;28;20538;-61
2023/04/01 12:05:12;;;;;;;0.70;0.70;;;;;;;2.26;80.85;93825.28;4995272;28;20552;-61
2023/04/01 12:07:53;;;;;;;0.50;0.50;;;;;;;1.73;83.12;93830.16;4999221;28;20030;-61
2023/04/01 12:10:55;;;;;;;0.60;0.60;;;;;;;1.77;84.04;93834.09;4998279;28;20045;-62
2023/04/01 12:14:09;;;;;;;0.50;0.45;;;;;;;1.88;83.68;93833.75;4978720;28;20225;-62
2023/04/01 12:17:06;;;;;;;0.50;0.50;;;;;;;2.47;81.78;93838.81;4993722;28;20045;-62
2023/04/01 12:20:01;;;;;;;0.90;0.90;;;;;;;2.91;78.15;93840.91;4997082;28;20512;-63